createdAt,value
2023-03-02T00:01:03.390Z,102102.47
2023-03-02T00:03:32.157Z,102107.47
2023-03-02T00:05:59.725Z,102103.31
2023-03-02T00:08:27.922Z,102101.47
2023-03-02T00:10:56.535Z,102107.66
2023-03-02T00:13:23.605Z,102099.66
2023-03-02T00:15:50.227Z,102101.00
2023-03-02T00:18:16.729Z,102103.22
2023-03-02T00:20:43.186Z,102108.38
2023-03-02T00:23:09.832Z,102110.00
2023-03-02T00:25:36.469Z,102109.31
2023-03-02T00:28:03.564Z,102107.13
2023-03-02T00:30:30.095Z,102102.97
2023-03-02T00:32:58.561Z,102104.63
2023-03-02T00:35:28.410Z,102104.94
2023-03-02T00:37:55.064Z,102097.72
2023-03-02T00:40:21.536Z,102098.19
2023-03-02T00:42:47.989Z,102101.88
2023-03-02T00:45:14.421Z,102100.72
2023-03-02T00:47:41.661Z,102096.88
2023-03-02T00:50:09.814Z,102103.38
2023-03-02T00:52:36.477Z,102099.56
2023-03-02T00:55:03.319Z,102087.53
2023-03-02T00:57:29.964Z,102101.56
2023-03-02T00:59:56.411Z,102101.88
2023-03-02T01:02:31.839Z,102099.84
2023-03-02T01:04:58.728Z,102099.69
2023-03-02T01:07:28.163Z,102095.72
2023-03-02T01:09:54.654Z,102094.91
2023-03-02T01:12:21.103Z,102098.69
2023-03-02T01:14:48.897Z,102102.81
2023-03-02T01:17:15.671Z,102098.50
2023-03-02T01:19:42.276Z,102097.69
2023-03-02T01:22:09.998Z,102094.00
2023-03-02T01:24:36.444Z,102098.31
2023-03-02T01:27:02.969Z,102092.31
2023-03-02T01:29:29.438Z,102089.66
2023-03-02T01:31:55.984Z,102088.88
2023-03-02T01:34:22.625Z,102086.34
2023-03-02T01:36:49.159Z,102069.66
2023-03-02T01:39:16.154Z,102077.97
2023-03-02T01:41:44.486Z,102072.63
2023-03-02T01:44:41.079Z,102074.13
2023-03-02T01:47:32.210Z,102073.56
2023-03-02T01:50:24.358Z,102079.25
2023-03-02T01:52:55.514Z,102081.50
2023-03-02T01:55:25.653Z,102078.50
2023-03-02T01:57:55.498Z,102085.97
2023-03-02T02:00:34.254Z,102078.78
2023-03-02T02:03:09.058Z,102070.41
2023-03-02T02:05:43.031Z,102066.59
2023-03-02T02:08:10.266Z,102074.38
2023-03-02T02:10:39.802Z,102072.00
2023-03-02T02:13:10.855Z,102070.88
2023-03-02T02:15:38.898Z,102065.50
2023-03-02T02:18:05.547Z,102055.97
2023-03-02T02:20:41.285Z,102063.19
2023-03-02T02:23:26.443Z,102059.28
2023-03-02T02:25:55.564Z,102065.59
2023-03-02T02:28:30.798Z,102057.44
2023-03-02T02:31:26.777Z,102062.47
2023-03-02T02:33:59.701Z,102051.16
2023-03-02T02:36:34.934Z,102054.91
2023-03-02T02:39:08.559Z,102052.91
2023-03-02T02:41:38.200Z,102053.75
2023-03-02T02:44:05.988Z,102045.22
2023-03-02T02:46:34.126Z,102052.53
2023-03-02T02:49:03.807Z,102040.91
2023-03-02T02:51:30.367Z,102037.03
2023-03-02T02:53:59.953Z,102033.19
2023-03-02T02:56:35.985Z,102037.34
2023-03-02T02:59:17.515Z,102041.59
2023-03-02T03:01:45.892Z,102043.53
2023-03-02T03:04:18.137Z,102039.19
2023-03-02T03:06:57.098Z,102039.78
2023-03-02T03:09:24.846Z,102040.50
2023-03-02T03:12:02.591Z,102040.31
2023-03-02T03:14:33.783Z,102036.31
2023-03-02T03:17:00.572Z,102037.63
2023-03-02T03:19:31.572Z,102037.78
2023-03-02T03:22:01.257Z,102036.16
2023-03-02T03:24:34.926Z,102042.66
2023-03-02T03:27:05.308Z,102038.50
2023-03-02T03:29:34.608Z,102045.47
2023-03-02T03:32:03.384Z,102039.19
2023-03-02T03:34:31.494Z,102032.00
2023-03-02T03:37:01.785Z,102033.53
2023-03-02T03:39:31.709Z,102040.06
2023-03-02T03:41:58.896Z,102040.09
2023-03-02T03:44:25.392Z,102044.00
2023-03-02T03:46:52.520Z,102039.84
2023-03-02T03:49:19.173Z,102049.19
2023-03-02T03:51:45.784Z,102052.25
2023-03-02T03:54:12.464Z,102052.41
2023-03-02T03:56:45.844Z,102056.44
2023-03-02T03:59:18.152Z,102054.41
2023-03-02T04:01:53.222Z,102058.59
2023-03-02T04:04:35.598Z,102060.09
2023-03-02T04:07:07.329Z,102069.88
2023-03-02T04:09:37.845Z,102058.53
2023-03-02T04:12:06.711Z,102057.22
2023-03-02T04:14:33.322Z,102055.63
2023-03-02T04:17:00.852Z,102060.13
2023-03-02T04:19:27.855Z,102054.75
2023-03-02T04:21:58.826Z,102060.78
2023-03-02T04:24:26.300Z,102058.28
2023-03-02T04:26:55.656Z,102066.47
2023-03-02T04:29:23.234Z,102067.25
2023-03-02T04:31:50.839Z,102061.97
2023-03-02T04:34:18.762Z,102072.50
2023-03-02T04:36:46.848Z,102064.94
2023-03-02T04:39:16.704Z,102067.81
2023-03-02T04:41:47.913Z,102064.75
2023-03-02T04:44:15.914Z,102066.63
2023-03-02T04:46:44.953Z,102056.44
2023-03-02T04:49:12.668Z,102064.78
2023-03-02T04:51:42.911Z,102060.97
2023-03-02T04:54:19.511Z,102070.59
2023-03-02T04:56:48.517Z,102069.91
2023-03-02T04:59:20.942Z,102061.63
2023-03-02T05:01:48.111Z,102061.94
2023-03-02T05:04:15.186Z,102053.97
2023-03-02T05:06:41.782Z,102058.75
2023-03-02T05:09:08.313Z,102055.28
2023-03-02T05:11:35.689Z,102052.28
2023-03-02T05:14:05.168Z,102050.47
2023-03-02T05:16:34.536Z,102053.00
2023-03-02T05:19:02.972Z,102052.50
2023-03-02T05:21:30.396Z,102049.53
2023-03-02T05:23:57.982Z,102054.00
2023-03-02T05:26:24.448Z,102043.84
2023-03-02T05:28:53.032Z,102056.88
2023-03-02T05:31:29.148Z,102053.84
2023-03-02T05:33:55.720Z,102051.19
2023-03-02T05:36:23.338Z,102056.88
2023-03-02T05:38:49.953Z,102061.38
2023-03-02T05:41:16.442Z,102059.09
2023-03-02T05:43:43.352Z,102057.34
2023-03-02T05:46:09.837Z,102057.16
2023-03-02T05:48:36.869Z,102061.47
2023-03-02T05:51:03.666Z,102054.63
2023-03-02T05:53:30.102Z,102064.94
2023-03-02T05:55:56.827Z,102069.50
2023-03-02T05:58:23.243Z,102068.00
2023-03-02T06:00:49.967Z,102075.81
2023-03-02T06:03:16.932Z,102077.34
2023-03-02T06:05:43.915Z,102074.66
2023-03-02T06:08:10.534Z,102081.66
2023-03-02T06:10:36.992Z,102082.13
2023-03-02T06:13:03.459Z,102076.78
2023-03-02T06:15:29.910Z,102084.31
2023-03-02T06:17:57.678Z,102086.81
2023-03-02T06:20:24.730Z,102081.81
2023-03-02T06:22:51.151Z,102090.31
2023-03-02T06:25:23.136Z,102088.00
2023-03-02T06:27:51.647Z,102093.63
2023-03-02T06:30:22.295Z,102096.63
2023-03-02T06:32:48.814Z,102097.13
2023-03-02T06:35:15.954Z,102105.19
2023-03-02T06:37:44.241Z,102099.88
2023-03-02T06:40:12.100Z,102101.38
2023-03-02T06:42:39.420Z,102103.84
2023-03-02T06:45:07.692Z,102100.19
2023-03-02T06:47:34.114Z,102099.06
2023-03-02T06:50:00.912Z,102105.88
2023-03-02T06:52:28.010Z,102102.88
2023-03-02T06:54:55.904Z,102096.03
2023-03-02T06:57:22.740Z,102105.69
2023-03-02T06:59:49.140Z,102102.66
2023-03-02T07:02:15.582Z,102100.91
2023-03-02T07:04:42.132Z,102095.09
2023-03-02T07:07:08.989Z,102091.09
2023-03-02T07:09:35.496Z,102092.25
2023-03-02T07:12:02.053Z,102087.09
2023-03-02T07:14:28.446Z,102090.91
2023-03-02T07:16:57.373Z,102085.38
2023-03-02T07:19:24.228Z,102076.91
2023-03-02T07:21:50.648Z,102074.91
2023-03-02T07:24:17.106Z,102066.94
2023-03-02T07:26:43.697Z,102070.31
2023-03-02T07:29:10.228Z,102058.91
2023-03-02T07:31:36.657Z,102061.59
2023-03-02T07:34:03.113Z,102069.28
2023-03-02T07:36:30.114Z,102069.59
2023-03-02T07:38:56.531Z,102074.81
2023-03-02T07:41:22.925Z,102077.78
2023-03-02T07:43:49.386Z,102076.97
2023-03-02T07:46:16.137Z,102075.13
2023-03-02T07:48:42.848Z,102074.13
2023-03-02T07:51:09.290Z,102075.66
2023-03-02T07:53:36.138Z,102072.00
2023-03-02T07:56:07.241Z,102074.63
2023-03-02T07:58:35.272Z,102074.16
2023-03-02T08:01:02.230Z,102078.31
2023-03-02T08:03:28.802Z,102074.72
2023-03-02T08:05:55.217Z,102075.03
2023-03-02T08:08:21.690Z,102080.38
2023-03-02T08:10:48.202Z,102076.84
2023-03-02T08:13:14.617Z,102083.50
2023-03-02T08:15:41.670Z,102077.81
2023-03-02T08:18:08.096Z,102076.53
2023-03-02T08:20:34.482Z,102079.72
2023-03-02T08:23:01.060Z,102078.06
2023-03-02T08:25:27.535Z,102075.25
2023-03-02T08:27:54.019Z,102069.25
2023-03-02T08:30:20.404Z,102062.88
2023-03-02T08:32:47.025Z,102068.22
2023-03-02T08:35:13.820Z,102069.41
2023-03-02T08:37:40.329Z,102075.56
2023-03-02T08:40:07.468Z,102078.75
2023-03-02T08:42:33.895Z,102070.25
2023-03-02T08:45:00.394Z,102070.75
2023-03-02T08:47:28.500Z,102068.25
2023-03-02T08:49:54.928Z,102060.06
2023-03-02T08:52:21.362Z,102064.41
2023-03-02T08:54:48.071Z,102074.94
2023-03-02T08:57:14.525Z,102075.91
2023-03-02T08:59:41.431Z,102069.25
2023-03-02T09:02:12.265Z,102068.06
2023-03-02T09:04:39.343Z,102073.06
2023-03-02T09:07:05.957Z,102068.56
2023-03-02T09:09:32.378Z,102065.22
2023-03-02T09:11:58.912Z,102067.25
2023-03-02T09:14:25.580Z,102082.09
2023-03-02T09:16:52.772Z,102076.41
2023-03-02T09:19:19.835Z,102079.25
2023-03-02T09:21:46.287Z,102077.59
2023-03-02T09:24:12.779Z,102078.09
2023-03-02T09:26:39.277Z,102074.41
2023-03-02T09:29:07.073Z,102077.94
2023-03-02T09:31:34.960Z,102072.25
2023-03-02T09:34:03.280Z,102082.09
2023-03-02T09:36:32.535Z,102080.59
2023-03-02T09:38:59.806Z,102078.59
2023-03-02T09:41:51.150Z,102073.09
2023-03-02T09:44:55.206Z,102077.28
2023-03-02T09:47:35.502Z,102090.78
2023-03-02T09:50:32.585Z,102086.78
2023-03-02T09:53:33.239Z,102074.09
2023-03-02T09:56:02.056Z,102086.47
2023-03-02T09:58:37.630Z,102074.56
2023-03-02T10:01:15.456Z,102082.41
2023-03-02T10:03:57.332Z,102069.03
2023-03-02T10:06:24.116Z,102075.03
2023-03-02T10:08:50.974Z,102066.84
2023-03-02T10:11:39.439Z,102077.66
2023-03-02T10:14:14.992Z,102073.19
2023-03-02T10:16:46.946Z,102072.19
2023-03-02T10:19:20.900Z,102070.78
2023-03-02T10:21:58.132Z,102070.97
2023-03-02T10:24:38.107Z,102074.16
2023-03-02T10:27:18.275Z,102072.28
2023-03-02T10:29:55.761Z,102067.06
2023-03-02T10:32:32.017Z,102061.38
2023-03-02T10:35:01.431Z,102065.50
2023-03-02T10:37:30.788Z,102066.06
2023-03-02T10:39:57.309Z,102068.09
2023-03-02T10:42:32.160Z,102068.00
2023-03-02T10:45:27.119Z,102059.00
2023-03-02T10:48:09.743Z,102058.44
2023-03-02T10:50:37.219Z,102053.38
2023-03-02T10:53:07.477Z,102041.63
2023-03-02T10:55:34.881Z,102046.53
2023-03-02T10:58:05.862Z,102041.00
2023-03-02T11:00:34.388Z,102042.97
2023-03-02T11:06:19.684Z,102049.97
2023-03-02T11:08:46.242Z,102056.88
2023-03-02T11:11:22.278Z,102047.03
2023-03-02T11:13:48.935Z,102054.81
2023-03-02T11:16:18.392Z,102049.22
2023-03-02T11:18:57.670Z,102041.50
2023-03-02T11:21:33.044Z,102043.13
2023-03-02T11:24:12.730Z,102035.78
2023-03-02T11:26:46.092Z,102033.16
2023-03-02T11:29:34.003Z,102038.47
2023-03-02T11:32:31.024Z,102029.88
2023-03-02T11:35:03.347Z,102028.00
2023-03-02T11:37:37.687Z,102027.59
2023-03-02T11:40:30.213Z,102022.75
2023-03-02T11:42:59.257Z,102023.25
2023-03-02T11:45:44.778Z,102026.94
2023-03-02T11:48:25.293Z,102027.34
2023-03-02T11:51:05.299Z,102033.06
2023-03-02T11:53:57.872Z,102029.44
2023-03-02T11:56:26.432Z,102028.78
2023-03-02T11:59:00.135Z,102019.09
2023-03-02T12:01:28.668Z,102016.38
2023-03-02T12:04:07.202Z,102012.25
2023-03-02T12:06:40.772Z,102011.81
2023-03-02T12:09:30.760Z,102011.31
2023-03-02T12:12:17.146Z,101999.94
2023-03-02T12:14:43.738Z,102004.75
2023-03-02T12:17:25.147Z,102000.84
2023-03-02T12:20:08.403Z,101997.72
2023-03-02T12:22:36.022Z,101988.28
2023-03-02T12:25:20.154Z,101983.53
2023-03-02T12:27:49.836Z,101986.41
2023-03-02T12:30:16.655Z,101978.94
2023-03-02T12:33:18.412Z,101985.31
2023-03-02T12:35:46.256Z,101983.19
2023-03-02T12:38:32.516Z,101978.47
2023-03-02T12:41:13.706Z,101977.91
2023-03-02T12:44:12.951Z,101980.22
2023-03-02T12:46:45.810Z,101984.75
2023-03-02T12:49:20.907Z,101980.09
2023-03-02T12:51:51.964Z,101975.84
2023-03-02T12:54:24.200Z,101970.03
2023-03-02T12:57:06.743Z,101979.38
2023-03-02T12:59:33.166Z,101966.25
2023-03-02T13:02:21.257Z,101971.47
2023-03-02T13:04:59.666Z,101961.13
2023-03-02T13:07:41.107Z,101956.13
2023-03-02T13:10:22.535Z,101957.19
2023-03-02T13:12:49.060Z,101946.53
2023-03-02T13:15:17.230Z,101950.31
2023-03-02T13:17:44.718Z,101953.31
2023-03-02T13:20:14.479Z,101951.84
2023-03-02T13:22:41.677Z,101954.47
2023-03-02T13:25:22.204Z,101938.91
2023-03-02T13:27:54.379Z,101930.31
2023-03-02T13:30:30.973Z,101935.63
2023-03-02T13:33:06.209Z,101934.75
2023-03-02T13:35:35.984Z,101929.94
2023-03-02T13:38:14.140Z,101920.50
2023-03-02T13:40:44.730Z,101935.88
2023-03-02T13:43:36.030Z,101933.19
2023-03-02T13:46:24.493Z,101922.88
2023-03-02T13:49:14.280Z,101920.31
2023-03-02T13:51:45.159Z,101920.69
2023-03-02T13:54:25.581Z,101914.94
2023-03-02T13:56:53.606Z,101909.63
2023-03-02T13:59:21.567Z,101919.00
2023-03-02T14:01:48.543Z,101904.25
2023-03-02T14:04:17.725Z,101898.16
2023-03-02T14:06:45.866Z,101903.22
2023-03-02T14:09:13.036Z,101895.41
2023-03-02T14:11:43.951Z,101903.41
2023-03-02T14:14:20.763Z,101901.13
2023-03-02T14:16:47.280Z,101900.84
2023-03-02T14:19:16.222Z,101895.78
2023-03-02T14:21:43.353Z,101898.03
2023-03-02T14:24:10.611Z,101892.66
2023-03-02T14:26:40.814Z,101889.16
2023-03-02T14:29:25.209Z,101904.00
2023-03-02T14:31:51.722Z,101894.94
2023-03-02T14:34:18.544Z,101893.50
2023-03-02T14:36:48.398Z,101890.16
2023-03-02T14:39:36.599Z,101887.41
2023-03-02T14:42:10.759Z,101888.88
2023-03-02T14:44:37.312Z,101886.75
2023-03-02T14:47:03.745Z,101885.28
2023-03-02T14:49:30.207Z,101881.13
2023-03-02T14:52:05.490Z,101881.31
2023-03-02T14:54:39.700Z,101878.94
2023-03-02T14:57:17.013Z,101880.66
2023-03-02T14:59:43.965Z,101884.31
2023-03-02T15:02:24.365Z,101880.94
2023-03-02T15:04:56.084Z,101882.00
2023-03-02T15:07:24.073Z,101876.53
2023-03-02T15:09:50.491Z,101879.81
2023-03-02T15:12:17.015Z,101877.25
2023-03-02T15:14:44.055Z,101872.25
2023-03-02T15:17:10.810Z,101878.47
2023-03-02T15:19:37.281Z,101873.59
2023-03-02T15:22:04.827Z,101868.59
2023-03-02T15:24:33.243Z,101870.53
2023-03-02T15:27:00.291Z,101871.81
2023-03-02T15:29:26.739Z,101863.69
2023-03-02T15:31:53.240Z,101868.59
2023-03-02T15:34:19.829Z,101862.97
2023-03-02T15:36:46.284Z,101866.66
2023-03-02T15:39:14.320Z,101865.16
2023-03-02T15:41:42.266Z,101857.28
2023-03-02T15:44:21.427Z,101855.81
2023-03-02T15:46:55.151Z,101848.88
2023-03-02T15:49:24.387Z,101844.56
2023-03-02T15:51:52.010Z,101847.53
2023-03-02T15:54:19.177Z,101849.56
2023-03-02T15:56:49.443Z,101853.44
2023-03-02T15:59:16.006Z,101850.22
2023-03-02T16:01:42.460Z,101848.72
2023-03-02T16:04:09.229Z,101848.00
2023-03-02T16:06:35.929Z,101852.53
2023-03-02T16:09:03.286Z,101857.25
2023-03-02T16:11:30.122Z,101861.75
2023-03-02T16:13:56.593Z,101858.25
2023-03-02T16:16:23.520Z,101857.63
2023-03-02T16:18:55.322Z,101860.22
2023-03-02T16:21:22.860Z,101858.16
2023-03-02T16:23:49.485Z,101855.78
2023-03-02T16:26:19.485Z,101867.69
2023-03-02T16:28:46.352Z,101862.03
2023-03-02T16:31:20.407Z,101867.13
2023-03-02T16:33:49.820Z,101871.28
2023-03-02T16:36:17.246Z,101863.34
2023-03-02T16:38:44.383Z,101871.66
2023-03-02T16:41:15.229Z,101879.69
2023-03-02T16:43:46.499Z,101878.59
2023-03-02T16:46:13.254Z,101886.53
2023-03-02T16:48:39.645Z,101881.00
2023-03-02T16:51:06.733Z,101880.41
2023-03-02T16:53:33.410Z,101889.75
2023-03-02T16:56:00.316Z,101892.16
2023-03-02T16:58:27.357Z,101889.84
2023-03-02T17:00:54.994Z,101889.94
2023-03-02T17:03:21.961Z,101889.19
2023-03-02T17:05:48.490Z,101890.38
2023-03-02T17:08:16.081Z,101886.72
2023-03-02T17:10:43.707Z,101887.44
2023-03-02T17:13:13.072Z,101892.06
2023-03-02T17:15:39.741Z,101889.47
2023-03-02T17:18:06.350Z,101887.00
2023-03-02T17:20:32.776Z,101893.25
2023-03-02T17:22:59.265Z,101897.50
2023-03-02T17:25:25.819Z,101902.59
2023-03-02T17:27:52.278Z,101903.25
2023-03-02T17:30:18.918Z,101906.38
2023-03-02T17:32:45.390Z,101900.47
2023-03-02T17:35:13.888Z,101900.03
2023-03-02T17:37:40.494Z,101905.56
2023-03-02T17:40:08.076Z,101899.91
2023-03-02T17:42:34.529Z,101896.50
2023-03-02T17:45:01.308Z,101896.97
2023-03-02T17:47:27.851Z,101901.38
2023-03-02T17:49:56.135Z,101898.16
2023-03-02T17:52:22.629Z,101905.19
2023-03-02T17:54:49.434Z,101896.66
2023-03-02T17:57:21.757Z,101896.47
2023-03-02T17:59:51.814Z,101896.97
2023-03-02T18:02:19.270Z,101902.78
2023-03-02T18:04:46.365Z,101903.78
2023-03-02T18:07:13.353Z,101905.13
2023-03-02T18:09:39.819Z,101910.25
2023-03-02T18:12:07.479Z,101913.44
2023-03-02T18:14:35.461Z,101911.31
2023-03-02T18:17:04.831Z,101914.34
2023-03-02T18:19:31.544Z,101918.47
2023-03-02T18:21:58.083Z,101908.16
2023-03-02T18:24:25.747Z,101917.56
2023-03-02T18:26:52.177Z,101917.75
2023-03-02T18:29:18.949Z,101924.41
2023-03-02T18:31:45.495Z,101929.19
2023-03-02T18:34:12.035Z,101925.25
2023-03-02T18:36:38.497Z,101934.56
2023-03-02T18:39:04.906Z,101941.31
2023-03-02T18:41:32.341Z,101936.69
2023-03-02T18:44:02.605Z,101938.00
2023-03-02T18:46:31.196Z,101938.19
2023-03-02T18:49:00.354Z,101935.50
2023-03-02T18:51:28.343Z,101934.84
2023-03-02T18:53:55.317Z,101933.34
2023-03-02T18:56:22.196Z,101939.09
2023-03-02T18:58:49.505Z,101933.34
2023-03-02T19:01:16.182Z,101926.25
2023-03-02T19:03:46.034Z,101926.75
2023-03-02T19:06:13.499Z,101933.47
2023-03-02T19:08:40.081Z,101929.84
2023-03-02T19:11:06.931Z,101930.50
2023-03-02T19:13:33.645Z,101923.56
2023-03-02T19:16:01.976Z,101924.69
2023-03-02T19:18:30.881Z,101928.38
2023-03-02T19:20:57.724Z,101932.25
2023-03-02T19:23:24.907Z,101931.31
2023-03-02T19:25:51.644Z,101935.97
2023-03-02T19:28:18.043Z,101923.97
2023-03-02T19:30:44.858Z,101930.97
2023-03-02T19:33:11.548Z,101925.59
2023-03-02T19:35:38.509Z,101934.09
2023-03-02T19:38:06.417Z,101933.00
2023-03-02T19:40:34.423Z,101931.16
2023-03-02T19:43:01.922Z,101935.50
2023-03-02T19:45:32.262Z,101933.81
2023-03-02T19:48:01.147Z,101929.84
2023-03-02T19:50:28.826Z,101933.81
2023-03-02T19:52:56.194Z,101932.72
2023-03-02T19:55:24.386Z,101940.03
2023-03-02T19:57:56.952Z,101940.31
2023-03-02T20:00:24.065Z,101936.69
2023-03-02T20:02:50.681Z,101942.97
2023-03-02T20:05:17.658Z,101938.25
2023-03-02T20:07:44.479Z,101940.94
2023-03-02T20:10:17.447Z,101940.84
2023-03-02T20:12:44.012Z,101934.00
2023-03-02T20:15:10.944Z,101941.84
2023-03-02T20:17:37.440Z,101941.84
2023-03-02T20:20:05.551Z,101936.41
2023-03-02T20:22:31.941Z,101940.66
2023-03-02T20:24:59.443Z,101936.59
2023-03-02T20:27:26.056Z,101952.03
2023-03-02T20:29:52.508Z,101955.06
2023-03-02T20:32:19.040Z,101947.88
2023-03-02T20:34:45.496Z,101945.72
2023-03-02T20:37:14.945Z,101956.19
2023-03-02T20:39:45.208Z,101949.16
2023-03-02T20:42:12.230Z,101957.09
2023-03-02T20:44:39.519Z,101955.47
2023-03-02T20:47:09.754Z,101957.69
2023-03-02T20:49:37.496Z,101967.41
2023-03-02T20:52:05.241Z,101957.50
2023-03-02T20:54:36.768Z,101964.09
2023-03-02T20:57:05.246Z,101955.31
2023-03-02T20:59:32.786Z,101968.41
2023-03-02T21:02:00.264Z,101958.53
2023-03-02T21:04:28.656Z,101952.50
2023-03-02T21:06:55.170Z,101957.44
2023-03-02T21:09:21.671Z,101974.03
2023-03-02T21:11:48.411Z,101971.13
2023-03-02T21:14:15.195Z,101974.03
2023-03-02T21:16:44.446Z,101965.19
2023-03-02T21:19:15.239Z,101966.50
2023-03-02T21:21:42.593Z,101980.06
2023-03-02T21:24:16.894Z,101966.06
2023-03-02T21:26:45.623Z,101962.47
2023-03-02T21:29:13.625Z,101959.31
2023-03-02T21:31:42.120Z,101959.22
2023-03-02T21:34:08.721Z,101962.72
2023-03-02T21:36:35.443Z,101964.25
2023-03-02T21:39:04.264Z,101964.69
2023-03-02T21:41:30.780Z,101960.16
2023-03-02T21:43:57.777Z,101957.47
2023-03-02T21:46:24.500Z,101962.88
2023-03-02T21:48:51.469Z,101965.31
2023-03-02T21:51:18.121Z,101964.84
2023-03-02T21:53:45.022Z,101960.28
2023-03-02T21:56:20.498Z,101958.22
2023-03-02T21:58:55.714Z,101947.84
2023-03-02T22:01:22.596Z,101962.78
2023-03-02T22:03:49.934Z,101958.97
2023-03-02T22:06:25.538Z,101957.84
2023-03-02T22:08:52.194Z,101954.63
2023-03-02T22:11:24.718Z,101957.38
2023-03-02T22:13:53.870Z,101959.78
2023-03-02T22:16:23.023Z,101964.41
2023-03-02T22:18:54.201Z,101952.19
2023-03-02T22:21:33.334Z,101968.16
2023-03-02T22:24:09.727Z,101966.13
2023-03-02T22:26:40.794Z,101975.00
2023-03-02T22:29:16.380Z,101973.31
2023-03-02T22:31:47.543Z,101972.13
2023-03-02T22:34:18.714Z,101963.63
2023-03-02T22:36:46.766Z,101969.00
2023-03-02T22:39:29.941Z,101955.16
2023-03-02T22:42:06.212Z,101952.63
2023-03-02T22:44:33.413Z,101950.28
2023-03-02T22:47:00.358Z,101951.28
2023-03-02T22:49:29.479Z,101957.66
2023-03-02T22:52:01.003Z,101949.00
2023-03-02T22:54:36.368Z,101948.13
2023-03-02T22:57:03.969Z,101950.88
2023-03-02T22:59:37.379Z,101964.75
2023-03-02T23:02:14.755Z,101969.41
2023-03-02T23:04:41.785Z,101966.66
2023-03-02T23:07:26.790Z,101950.78
2023-03-02T23:09:53.242Z,101954.75
2023-03-02T23:12:27.563Z,101949.38
2023-03-02T23:14:56.249Z,101952.88
2023-03-02T23:17:35.980Z,101948.38
2023-03-02T23:20:09.122Z,101948.22
2023-03-02T23:22:36.087Z,101960.72
2023-03-02T23:25:03.499Z,101962.84
2023-03-02T23:27:30.044Z,101957.22
2023-03-02T23:29:56.501Z,101951.59
2023-03-02T23:32:23.012Z,101948.59
2023-03-02T23:34:50.120Z,101942.38
2023-03-02T23:37:17.374Z,101950.81
2023-03-02T23:39:46.012Z,101949.44
2023-03-02T23:42:12.658Z,101938.91
2023-03-02T23:44:39.108Z,101947.66
2023-03-02T23:47:05.537Z,101945.84
2023-03-02T23:49:32.214Z,101946.47
2023-03-02T23:51:58.695Z,101929.97
2023-03-02T23:54:25.156Z,101940.16
2023-03-02T23:56:51.573Z,101931.97
2023-03-02T23:59:17.997Z,101929.97
